sensor_id;sensor_type;location;lat;lon;timestamp;pressure;altitude;pressure_sealevel;temperature;humidity
12073;BME280;6098;49.004;8.372;2023-03-13T00:03:17;99844.70;;;11.91;66.92
12073;BME280;6098;49.004;8.372;2023-03-13T00:18:09;99823.42;;;11.92;67.01
12073;BME280;6098;49.004;8.372;2023-03-13T00:33:00;99806.73;;;11.97;66.49
12073;BME280;6098;49.004;8.372;2023-03-13T00:47:51;99770.03;;;12.05;65.93
12073;BME280;6098;49.004;8.372;2023-03-13T01:02:43;99753.69;;;12.20;64.71
12073;BME280;6098;49.004;8.372;2023-03-13T01:17:34;99739.73;;;12.24;64.55
12073;BME280;6098;49.004;8.372;2023-03-13T01:32:24;99707.44;;;12.23;64.80
12073;BME280;6098;49.004;8.372;2023-03-13T01:47:16;99683.38;;;12.26;65.59
12073;BME280;6098;49.004;8.372;2023-03-13T02:02:06;99677.06;;;12.28;68.45
12073;BME280;6098;49.004;8.372;2023-03-13T07:54:11;99441.00;;;13.54;81.91
12073;BME280;6098;49.004;8.372;2023-03-13T08:08:58;99455.75;;;13.85;80.35
12073;BME280;6098;49.004;8.372;2023-03-13T08:23:56;99446.92;;;14.10;78.99
12073;BME280;6098;49.004;8.372;2023-03-13T08:38:52;99443.20;;;14.19;78.37
12073;BME280;6098;49.004;8.372;2023-03-13T08:53:43;99425.94;;;14.44;77.11
12073;BME280;6098;49.004;8.372;2023-03-13T09:08:33;99416.59;;;14.57;76.33
12073;BME280;6098;49.004;8.372;2023-03-13T09:23:25;99405.40;;;14.95;74.66
12073;BME280;6098;49.004;8.372;2023-03-13T09:38:18;99386.88;;;15.47;72.71
12073;BME280;6098;49.004;8.372;2023-03-13T09:53:13;99398.18;;;15.62;71.56
12073;BME280;6098;49.004;8.372;2023-03-13T10:23:17;99354.95;;;16.03;69.32
12073;BME280;6098;49.004;8.372;2023-03-13T10:38:11;99334.12;;;16.07;68.82
12073;BME280;6098;49.004;8.372;2023-03-13T10:53:25;99293.02;;;16.48;67.46
12073;BME280;6098;49.004;8.372;2023-03-13T11:08:27;99261.31;;;16.97;65.41
12073;BME280;6098;49.004;8.372;2023-03-13T11:23:29;99226.73;;;17.57;63.86
12073;BME280;6098;49.004;8.372;2023-03-13T11:38:34;99183.83;;;18.43;60.67
12073;BME280;6098;49.004;8.372;2023-03-13T12:09:16;99109.78;;;19.31;56.47
12073;BME280;6098;49.004;8.372;2023-03-13T12:24:24;99068.17;;;19.12;57.70
12073;BME280;6098;49.004;8.372;2023-03-13T12:39:39;99032.00;;;19.63;56.14
12073;BME280;6098;49.004;8.372;2023-03-13T13:09:30;98971.85;;;20.35;52.10
12073;BME280;6098;49.004;8.372;2023-03-13T13:39:38;98882.84;;;20.92;50.26
12073;BME280;6098;49.004;8.372;2023-03-13T14:24:34;98778.39;;;21.77;48.29
12073;BME280;6098;49.004;8.372;2023-03-13T14:54:25;98698.21;;;22.02;45.83
12073;BME280;6098;49.004;8.372;2023-03-13T15:09:16;98652.45;;;21.73;47.29
12073;BME280;6098;49.004;8.372;2023-03-13T15:24:12;98604.48;;;21.41;48.06
12073;BME280;6098;49.004;8.372;2023-03-13T15:39:10;98571.33;;;21.24;48.68
12073;BME280;6098;49.004;8.372;2023-03-13T15:54:02;98540.09;;;21.02;49.57
12073;BME280;6098;49.004;8.372;2023-03-13T16:08:53;98522.90;;;20.95;49.92
12073;BME280;6098;49.004;8.372;2023-03-13T16:23:45;98499.78;;;20.77;49.84
12073;BME280;6098;49.004;8.372;2023-03-13T16:38:36;98487.05;;;20.67;49.67
12073;BME280;6098;49.004;8.372;2023-03-13T16:53:29;98469.81;;;20.48;50.41
12073;BME280;6098;49.004;8.372;2023-03-13T17:08:21;98504.08;;;20.18;55.76
12073;BME280;6098;49.004;8.372;2023-03-13T17:23:08;98559.46;;;17.86;63.80
12073;BME280;6098;49.004;8.372;2023-03-13T17:37:53;98493.44;;;15.74;80.64
12073;BME280;6098;49.004;8.372;2023-03-13T17:52:42;98547.27;;;15.04;88.94
12073;BME280;6098;49.004;8.372;2023-03-13T18:07:32;98561.16;;;14.71;95.62
12073;BME280;6098;49.004;8.372;2023-03-13T18:22:24;98544.50;;;14.58;100.00
12073;BME280;6098;49.004;8.372;2023-03-13T18:37:31;98517.76;;;14.49;100.00
12073;BME280;6098;49.004;8.372;2023-03-13T18:52:23;98553.14;;;14.41;100.00
12073;BME280;6098;49.004;8.372;2023-03-13T19:07:18;98634.22;;;14.27;100.00
12073;BME280;6098;49.004;8.372;2023-03-13T19:22:07;98784.03;;;14.08;100.00
12073;BME280;6098;49.004;8.372;2023-03-13T19:36:53;98813.11;;;12.59;100.00
12073;BME280;6098;49.004;8.372;2023-03-13T19:51:43;98830.44;;;12.27;100.00
12073;BME280;6098;49.004;8.372;2023-03-13T20:06:35;98817.90;;;12.29;100.00
12073;BME280;6098;49.004;8.372;2023-03-13T20:21:28;98762.06;;;12.17;100.00
12073;BME280;6098;49.004;8.372;2023-03-13T20:36:19;98725.22;;;12.07;100.00
12073;BME280;6098;49.004;8.372;2023-03-13T20:51:09;98707.18;;;11.99;100.00
12073;BME280;6098;49.004;8.372;2023-03-13T21:21:08;98649.63;;;11.93;100.00
12073;BME280;6098;49.004;8.372;2023-03-13T21:36:01;98631.08;;;11.99;98.38
12073;BME280;6098;49.004;8.372;2023-03-13T21:50:52;98621.58;;;12.02;96.92
12073;BME280;6098;49.004;8.372;2023-03-13T22:05:43;98594.95;;;12.03;94.70
12073;BME280;6098;49.004;8.372;2023-03-13T22:20:34;98595.64;;;12.12;93.00
12073;BME280;6098;49.004;8.372;2023-03-13T22:35:25;98557.03;;;12.19;91.04
12073;BME280;6098;49.004;8.372;2023-03-13T22:50:17;98528.64;;;12.31;86.95
12073;BME280;6098;49.004;8.372;2023-03-13T23:05:08;98603.48;;;12.37;82.67
12073;BME280;6098;49.004;8.372;2023-03-13T23:19:59;98637.53;;;12.43;80.88
12073;BME280;6098;49.004;8.372;2023-03-13T23:34:50;98657.72;;;12.52;80.98
12073;BME280;6098;49.004;8.372;2023-03-13T23:49:52;98668.38;;;12.57;81.66
